sensor_id;sensor_type;location;lat;lon;timestamp;pressure;altitude;pressure_sealevel;temperature;humidity
13367;BME280;6752;52.612;13.630;2023-07-29T00:03:05;100178.90;;;18.38;100.00
13367;BME280;6752;52.612;13.630;2023-07-29T00:08:07;100167.66;;;18.27;100.00
13367;BME280;6752;52.612;13.630;2023-07-29T00:13:09;100156.94;;;18.23;100.00
13367;BME280;6752;52.612;13.630;2023-07-29T00:18:12;100167.77;;;18.04;100.00
13367;BME280;6752;52.612;13.630;2023-07-29T00:23:14;100154.27;;;18.03;100.00
13367;BME280;6752;52.612;13.630;2023-07-29T00:28:17;100155.72;;;17.85;100.00
13367;BME280;6752;52.612;13.630;2023-07-29T00:33:19;100149.41;;;17.72;100.00
13367;BME280;6752;52.612;13.630;2023-07-29T00:38:21;100146.80;;;17.63;100.00
13367;BME280;6752;52.612;13.630;2023-07-29T00:43:24;100143.80;;;17.55;100.00
13367;BME280;6752;52.612;13.630;2023-07-29T00:48:26;100140.91;;;17.45;100.00
13367;BME280;6752;52.612;13.630;2023-07-29T00:53:28;100141.80;;;17.28;100.00
13367;BME280;6752;52.612;13.630;2023-07-29T00:58:31;100145.64;;;17.32;100.00
13367;BME280;6752;52.612;13.630;2023-07-29T01:03:33;100144.01;;;17.13;100.00
13367;BME280;6752;52.612;13.630;2023-07-29T01:09:02;100133.00;;;17.11;100.00
13367;BME280;6752;52.612;13.630;2023-07-29T01:14:16;100135.89;;;16.95;100.00
13367;BME280;6752;52.612;13.630;2023-07-29T01:19:05;100135.48;;;16.92;100.00
13367;BME280;6752;52.612;13.630;2023-07-29T01:24:07;100125.17;;;16.85;100.00
13367;BME280;6752;52.612;13.630;2023-07-29T01:29:09;100128.07;;;16.82;100.00
13367;BME280;6752;52.612;13.630;2023-07-29T01:34:22;100120.07;;;16.73;100.00
13367;BME280;6752;52.612;13.630;2023-07-29T01:39:16;100114.70;;;16.67;100.00
13367;BME280;6752;52.612;13.630;2023-07-29T01:44:19;100112.87;;;16.54;100.00
13367;BME280;6752;52.612;13.630;2023-07-29T01:49:21;100111.91;;;16.54;100.00
13367;BME280;6752;52.612;13.630;2023-07-29T01:54:24;100130.47;;;16.46;100.00
13367;BME280;6752;52.612;13.630;2023-07-29T01:59:26;100137.77;;;16.38;100.00
13367;BME280;6752;52.612;13.630;2023-07-29T02:04:28;100141.20;;;16.39;100.00
13367;BME280;6752;52.612;13.630;2023-07-29T02:09:31;100138.72;;;16.40;100.00
13367;BME280;6752;52.612;13.630;2023-07-29T02:14:33;100133.63;;;16.36;100.00
13367;BME280;6752;52.612;13.630;2023-07-29T02:19:35;100134.55;;;16.28;100.00
13367;BME280;6752;52.612;13.630;2023-07-29T02:24:38;100122.31;;;16.24;100.00
13367;BME280;6752;52.612;13.630;2023-07-29T02:29:40;100127.40;;;16.19;100.00
13367;BME280;6752;52.612;13.630;2023-07-29T02:34:42;100135.08;;;16.09;100.00
13367;BME280;6752;52.612;13.630;2023-07-29T02:39:45;100144.72;;;16.20;100.00
13367;BME280;6752;52.612;13.630;2023-07-29T02:44:47;100144.44;;;16.14;100.00
13367;BME280;6752;52.612;13.630;2023-07-29T02:49:50;100144.84;;;16.11;100.00
13367;BME280;6752;52.612;13.630;2023-07-29T02:54:52;100141.91;;;16.04;100.00
13367;BME280;6752;52.612;13.630;2023-07-29T02:59:54;100141.48;;;15.99;100.00
13367;BME280;6752;52.612;13.630;2023-07-29T03:04:57;100144.09;;;15.92;100.00
13367;BME280;6752;52.612;13.630;2023-07-29T03:09:59;100142.10;;;15.83;100.00
13367;BME280;6752;52.612;13.630;2023-07-29T03:15:01;100138.58;;;15.87;100.00
13367;BME280;6752;52.612;13.630;2023-07-29T03:20:04;100131.84;;;15.86;100.00
13367;BME280;6752;52.612;13.630;2023-07-29T03:25:06;100124.80;;;15.85;100.00
13367;BME280;6752;52.612;13.630;2023-07-29T03:30:08;100125.11;;;15.88;100.00
13367;BME280;6752;52.612;13.630;2023-07-29T03:35:11;100141.87;;;15.87;100.00
13367;BME280;6752;52.612;13.630;2023-07-29T03:40:13;100147.16;;;15.75;100.00
13367;BME280;6752;52.612;13.630;2023-07-29T03:45:16;100134.53;;;15.76;100.00
13367;BME280;6752;52.612;13.630;2023-07-29T03:50:18;100132.39;;;15.88;100.00
13367;BME280;6752;52.612;13.630;2023-07-29T03:55:20;100124.23;;;15.77;100.00
13367;BME280;6752;52.612;13.630;2023-07-29T04:00:23;100123.27;;;16.11;100.00
13367;BME280;6752;52.612;13.630;2023-07-29T04:05:25;100134.08;;;16.05;100.00
13367;BME280;6752;52.612;13.630;2023-07-29T04:10:27;100150.44;;;16.05;100.00
13367;BME280;6752;52.612;13.630;2023-07-29T04:15:30;100149.66;;;16.13;100.00
13367;BME280;6752;52.612;13.630;2023-07-29T04:20:32;100151.88;;;16.26;100.00
13367;BME280;6752;52.612;13.630;2023-07-29T04:25:34;100146.14;;;16.35;100.00
13367;BME280;6752;52.612;13.630;2023-07-29T04:30:37;100139.58;;;16.64;100.00
13367;BME280;6752;52.612;13.630;2023-07-29T04:35:39;100132.19;;;16.87;100.00
13367;BME280;6752;52.612;13.630;2023-07-29T04:40:42;100127.23;;;16.92;100.00
13367;BME280;6752;52.612;13.630;2023-07-29T04:45:44;100130.24;;;17.13;100.00
13367;BME280;6752;52.612;13.630;2023-07-29T04:50:46;100126.03;;;17.46;100.00
13367;BME280;6752;52.612;13.630;2023-07-29T04:55:49;100128.52;;;17.45;100.00
13367;BME280;6752;52.612;13.630;2023-07-29T05:00:51;100129.53;;;17.85;100.00
13367;BME280;6752;52.612;13.630;2023-07-29T05:05:53;100118.48;;;18.15;100.00
13367;BME280;6752;52.612;13.630;2023-07-29T05:10:56;100114.72;;;18.42;100.00
13367;BME280;6752;52.612;13.630;2023-07-29T05:15:58;100119.94;;;18.49;100.00
13367;BME280;6752;52.612;13.630;2023-07-29T05:21:00;100108.98;;;19.07;100.00
13367;BME280;6752;52.612;13.630;2023-07-29T05:26:03;100109.94;;;19.35;100.00
13367;BME280;6752;52.612;13.630;2023-07-29T05:31:05;100107.67;;;19.42;100.00
13367;BME280;6752;52.612;13.630;2023-07-29T05:36:08;100112.30;;;19.64;100.00
13367;BME280;6752;52.612;13.630;2023-07-29T05:41:10;100103.52;;;19.40;100.00
13367;BME280;6752;52.612;13.630;2023-07-29T05:46:12;100102.83;;;19.56;100.00
13367;BME280;6752;52.612;13.630;2023-07-29T05:51:15;100093.81;;;19.81;100.00
13367;BME280;6752;52.612;13.630;2023-07-29T05:56:17;100094.37;;;20.30;100.00
13367;BME280;6752;52.612;13.630;2023-07-29T06:01:19;100099.10;;;20.20;100.00
13367;BME280;6752;52.612;13.630;2023-07-29T06:06:22;100087.82;;;20.35;100.00
13367;BME280;6752;52.612;13.630;2023-07-29T06:11:24;100084.37;;;20.53;100.00
13367;BME280;6752;52.612;13.630;2023-07-29T06:16:26;100073.07;;;21.21;100.00
13367;BME280;6752;52.612;13.630;2023-07-29T06:21:29;100072.61;;;21.40;100.00
13367;BME280;6752;52.612;13.630;2023-07-29T06:26:31;100071.23;;;21.92;100.00
13367;BME280;6752;52.612;13.630;2023-07-29T06:31:34;100066.65;;;21.67;100.00
13367;BME280;6752;52.612;13.630;2023-07-29T06:36:36;100056.02;;;21.96;100.00
13367;BME280;6752;52.612;13.630;2023-07-29T06:41:38;100049.34;;;21.80;100.00
13367;BME280;6752;52.612;13.630;2023-07-29T06:46:41;100052.84;;;22.03;100.00
13367;BME280;6752;52.612;13.630;2023-07-29T06:51:43;100062.62;;;22.36;100.00
13367;BME280;6752;52.612;13.630;2023-07-29T06:56:45;100066.03;;;22.33;100.00
13367;BME280;6752;52.612;13.630;2023-07-29T07:01:48;100066.05;;;22.89;100.00
13367;BME280;6752;52.612;13.630;2023-07-29T07:06:50;100066.44;;;23.16;100.00
13367;BME280;6752;52.612;13.630;2023-07-29T07:11:52;100061.36;;;24.02;100.00
13367;BME280;6752;52.612;13.630;2023-07-29T07:16:55;100066.43;;;24.00;100.00
13367;BME280;6752;52.612;13.630;2023-07-29T07:21:57;100068.77;;;24.32;100.00
13367;BME280;6752;52.612;13.630;2023-07-29T07:27:00;100066.11;;;25.01;100.00
13367;BME280;6752;52.612;13.630;2023-07-29T07:32:02;100071.31;;;24.66;100.00
13367;BME280;6752;52.612;13.630;2023-07-29T07:37:04;100071.18;;;24.04;100.00
13367;BME280;6752;52.612;13.630;2023-07-29T07:42:07;100071.65;;;24.64;100.00
13367;BME280;6752;52.612;13.630;2023-07-29T07:47:09;100070.59;;;24.63;100.00
13367;BME280;6752;52.612;13.630;2023-07-29T07:52:11;100060.56;;;24.23;100.00
13367;BME280;6752;52.612;13.630;2023-07-29T07:57:14;100050.66;;;24.54;100.00
13367;BME280;6752;52.612;13.630;2023-07-29T08:02:16;100050.60;;;25.10;100.00
13367;BME280;6752;52.612;13.630;2023-07-29T08:07:18;100047.59;;;24.79;100.00
13367;BME280;6752;52.612;13.630;2023-07-29T08:12:21;100047.08;;;25.45;100.00
13367;BME280;6752;52.612;13.630;2023-07-29T08:17:23;100037.25;;;24.92;100.00
13367;BME280;6752;52.612;13.630;2023-07-29T08:22:26;100039.61;;;24.52;100.00
13367;BME280;6752;52.612;13.630;2023-07-29T08:27:28;100039.75;;;25.66;100.00
13367;BME280;6752;52.612;13.630;2023-07-29T08:32:30;100040.25;;;25.34;100.00
13367;BME280;6752;52.612;13.630;2023-07-29T08:37:33;100036.50;;;24.62;100.00
13367;BME280;6752;52.612;13.630;2023-07-29T08:42:35;100032.29;;;25.30;100.00
13367;BME280;6752;52.612;13.630;2023-07-29T08:47:37;100030.55;;;26.10;100.00
13367;BME280;6752;52.612;13.630;2023-07-29T08:52:40;100037.91;;;24.40;100.00
13367;BME280;6752;52.612;13.630;2023-07-29T08:57:42;100030.02;;;26.01;100.00
13367;BME280;6752;52.612;13.630;2023-07-29T09:02:44;100019.20;;;25.22;100.00
13367;BME280;6752;52.612;13.630;2023-07-29T09:07:47;100021.48;;;26.34;100.00
13367;BME280;6752;52.612;13.630;2023-07-29T09:12:49;100012.46;;;26.11;100.00
13367;BME280;6752;52.612;13.630;2023-07-29T09:17:52;100023.84;;;25.14;100.00
13367;BME280;6752;52.612;13.630;2023-07-29T09:22:54;100026.14;;;25.35;100.00
13367;BME280;6752;52.612;13.630;2023-07-29T09:27:59;100002.23;;;26.80;100.00
13367;BME280;6752;52.612;13.630;2023-07-29T09:33:01;99991.75;;;26.83;96.59
13367;BME280;6752;52.612;13.630;2023-07-29T09:38:06;99996.83;;;27.02;96.27
13367;BME280;6752;52.612;13.630;2023-07-29T09:43:09;99996.28;;;27.69;92.21
13367;BME280;6752;52.612;13.630;2023-07-29T09:48:11;99987.22;;;27.37;88.63
13367;BME280;6752;52.612;13.630;2023-07-29T09:53:13;99988.87;;;27.26;90.78
13367;BME280;6752;52.612;13.630;2023-07-29T09:58:15;99980.02;;;28.07;90.27
13367;BME280;6752;52.612;13.630;2023-07-29T10:03:21;99976.92;;;27.21;90.70
13367;BME280;6752;52.612;13.630;2023-07-29T10:08:20;99971.14;;;27.34;89.89
13367;BME280;6752;52.612;13.630;2023-07-29T10:13:22;99962.41;;;26.66;91.21
13367;BME280;6752;52.612;13.630;2023-07-29T10:18:25;99964.14;;;27.71;89.63
13367;BME280;6752;52.612;13.630;2023-07-29T10:23:27;99958.72;;;27.70;85.90
13367;BME280;6752;52.612;13.630;2023-07-29T10:28:30;99951.66;;;27.95;87.23
13367;BME280;6752;52.612;13.630;2023-07-29T10:33:32;99949.52;;;27.33;91.70
13367;BME280;6752;52.612;13.630;2023-07-29T10:38:34;99946.30;;;27.33;90.69
13367;BME280;6752;52.612;13.630;2023-07-29T10:43:36;99938.74;;;26.92;92.14
13367;BME280;6752;52.612;13.630;2023-07-29T10:48:42;99925.81;;;26.94;91.29
13367;BME280;6752;52.612;13.630;2023-07-29T10:53:44;99912.62;;;26.58;92.76
13367;BME280;6752;52.612;13.630;2023-07-29T10:58:46;99904.66;;;26.95;98.49
13367;BME280;6752;52.612;13.630;2023-07-29T11:09:38;99897.00;;;25.60;93.69
13367;BME280;6752;52.612;13.630;2023-07-29T11:14:11;99892.60;;;25.79;96.85
13367;BME280;6752;52.612;13.630;2023-07-29T11:19:14;99893.61;;;25.14;100.00
13367;BME280;6752;52.612;13.630;2023-07-29T11:24:17;99887.19;;;25.18;100.00
13367;BME280;6752;52.612;13.630;2023-07-29T11:29:18;99902.37;;;25.00;100.00
13367;BME280;6752;52.612;13.630;2023-07-29T11:34:30;99900.16;;;24.95;100.00
13367;BME280;6752;52.612;13.630;2023-07-29T11:39:23;99943.50;;;24.52;100.00
13367;BME280;6752;52.612;13.630;2023-07-29T11:44:25;99970.69;;;22.80;100.00
13367;BME280;6752;52.612;13.630;2023-07-29T11:49:28;99966.83;;;23.05;100.00
13367;BME280;6752;52.612;13.630;2023-07-29T11:54:30;99961.05;;;22.93;100.00
13367;BME280;6752;52.612;13.630;2023-07-29T11:59:33;99955.31;;;22.90;100.00
13367;BME280;6752;52.612;13.630;2023-07-29T12:04:35;99942.33;;;22.23;100.00
13367;BME280;6752;52.612;13.630;2023-07-29T12:09:37;99938.84;;;22.51;100.00
13367;BME280;6752;52.612;13.630;2023-07-29T12:14:43;99931.44;;;22.84;100.00
13367;BME280;6752;52.612;13.630;2023-07-29T12:19:42;99916.28;;;23.19;100.00
13367;BME280;6752;52.612;13.630;2023-07-29T12:24:44;99914.50;;;23.27;100.00
13367;BME280;6752;52.612;13.630;2023-07-29T12:29:47;99916.36;;;23.21;100.00
13367;BME280;6752;52.612;13.630;2023-07-29T12:34:49;99915.43;;;23.14;100.00
13367;BME280;6752;52.612;13.630;2023-07-29T12:39:51;99918.74;;;23.25;100.00
13367;BME280;6752;52.612;13.630;2023-07-29T12:44:54;99923.11;;;23.13;100.00
13367;BME280;6752;52.612;13.630;2023-07-29T12:49:56;99905.94;;;23.11;100.00
13367;BME280;6752;52.612;13.630;2023-07-29T12:54:58;99909.20;;;23.08;100.00
13367;BME280;6752;52.612;13.630;2023-07-29T13:00:01;99913.80;;;23.50;100.00
13367;BME280;6752;52.612;13.630;2023-07-29T13:05:03;99903.95;;;23.90;100.00
13367;BME280;6752;52.612;13.630;2023-07-29T13:10:06;99898.69;;;24.74;100.00
13367;BME280;6752;52.612;13.630;2023-07-29T13:15:08;99903.91;;;25.03;100.00
13367;BME280;6752;52.612;13.630;2023-07-29T13:20:10;99899.04;;;25.61;100.00
13367;BME280;6752;52.612;13.630;2023-07-29T13:25:13;99909.72;;;26.44;100.00
13367;BME280;6752;52.612;13.630;2023-07-29T13:30:15;99924.52;;;25.65;100.00
13367;BME280;6752;52.612;13.630;2023-07-29T13:35:17;99926.71;;;24.97;100.00
13367;BME280;6752;52.612;13.630;2023-07-29T13:40:20;99918.66;;;24.38;100.00
13367;BME280;6752;52.612;13.630;2023-07-29T13:45:22;99921.02;;;24.65;100.00
13367;BME280;6752;52.612;13.630;2023-07-29T13:50:24;99905.39;;;24.77;100.00
13367;BME280;6752;52.612;13.630;2023-07-29T13:55:27;99892.48;;;25.98;100.00
13367;BME280;6752;52.612;13.630;2023-07-29T14:00:29;99890.23;;;26.02;100.00
13367;BME280;6752;52.612;13.630;2023-07-29T14:05:31;99875.44;;;25.96;100.00
13367;BME280;6752;52.612;13.630;2023-07-29T14:10:34;99885.70;;;24.87;100.00
13367;BME280;6752;52.612;13.630;2023-07-29T14:15:36;99864.19;;;25.88;100.00
13367;BME280;6752;52.612;13.630;2023-07-29T14:20:38;99869.81;;;26.16;100.00
13367;BME280;6752;52.612;13.630;2023-07-29T14:25:41;99881.84;;;25.80;100.00
13367;BME280;6752;52.612;13.630;2023-07-29T14:30:43;99882.80;;;25.38;100.00
13367;BME280;6752;52.612;13.630;2023-07-29T14:35:46;99870.86;;;25.29;100.00
13367;BME280;6752;52.612;13.630;2023-07-29T14:40:48;99862.22;;;25.11;100.00
13367;BME280;6752;52.612;13.630;2023-07-29T14:45:50;99867.05;;;24.74;100.00
13367;BME280;6752;52.612;13.630;2023-07-29T14:50:53;99878.03;;;24.75;100.00
13367;BME280;6752;52.612;13.630;2023-07-29T14:55:55;99880.45;;;25.34;100.00
13367;BME280;6752;52.612;13.630;2023-07-29T15:00:57;99885.69;;;25.31;100.00
13367;BME280;6752;52.612;13.630;2023-07-29T15:06:00;99889.99;;;24.75;100.00
13367;BME280;6752;52.612;13.630;2023-07-29T15:11:02;99894.94;;;24.46;100.00
13367;BME280;6752;52.612;13.630;2023-07-29T15:16:04;99889.91;;;24.10;100.00
13367;BME280;6752;52.612;13.630;2023-07-29T15:21:07;99885.00;;;24.15;100.00
13367;BME280;6752;52.612;13.630;2023-07-29T15:26:09;99896.45;;;24.09;100.00
13367;BME280;6752;52.612;13.630;2023-07-29T15:31:12;99892.35;;;24.11;100.00
13367;BME280;6752;52.612;13.630;2023-07-29T15:36:14;99889.92;;;24.14;100.00
13367;BME280;6752;52.612;13.630;2023-07-29T15:41:16;99890.05;;;24.35;100.00
13367;BME280;6752;52.612;13.630;2023-07-29T15:46:19;99909.10;;;23.94;100.00
13367;BME280;6752;52.612;13.630;2023-07-29T15:51:21;99917.92;;;23.57;100.00
13367;BME280;6752;52.612;13.630;2023-07-29T15:56:23;99903.19;;;23.56;100.00
13367;BME280;6752;52.612;13.630;2023-07-29T16:01:26;99918.75;;;23.33;100.00
13367;BME280;6752;52.612;13.630;2023-07-29T16:06:28;99907.25;;;23.09;100.00
13367;BME280;6752;52.612;13.630;2023-07-29T16:11:30;99877.10;;;22.89;100.00
13367;BME280;6752;52.612;13.630;2023-07-29T16:16:33;99896.93;;;22.70;100.00
13367;BME280;6752;52.612;13.630;2023-07-29T16:21:35;99925.66;;;22.30;100.00
13367;BME280;6752;52.612;13.630;2023-07-29T16:26:37;99930.08;;;22.77;100.00
13367;BME280;6752;52.612;13.630;2023-07-29T16:31:40;99939.75;;;22.95;100.00
13367;BME280;6752;52.612;13.630;2023-07-29T16:36:42;99913.51;;;23.82;100.00
13367;BME280;6752;52.612;13.630;2023-07-29T16:41:44;99942.47;;;23.39;100.00
13367;BME280;6752;52.612;13.630;2023-07-29T16:46:47;99940.75;;;23.37;100.00
13367;BME280;6752;52.612;13.630;2023-07-29T16:51:49;99943.86;;;23.02;100.00
13367;BME280;6752;52.612;13.630;2023-07-29T16:56:52;99940.42;;;23.01;100.00
13367;BME280;6752;52.612;13.630;2023-07-29T17:01:54;99939.22;;;22.93;100.00
13367;BME280;6752;52.612;13.630;2023-07-29T17:06:56;99945.86;;;22.68;100.00
13367;BME280;6752;52.612;13.630;2023-07-29T17:11:59;99950.88;;;22.58;100.00
13367;BME280;6752;52.612;13.630;2023-07-29T17:17:01;99953.96;;;22.52;100.00
13367;BME280;6752;52.612;13.630;2023-07-29T17:22:03;99957.83;;;22.46;100.00
13367;BME280;6752;52.612;13.630;2023-07-29T17:27:06;99955.58;;;22.37;100.00
13367;BME280;6752;52.612;13.630;2023-07-29T17:32:08;99962.81;;;22.47;100.00
13367;BME280;6752;52.612;13.630;2023-07-29T17:37:10;99959.76;;;22.26;100.00
13367;BME280;6752;52.612;13.630;2023-07-29T17:42:13;99958.81;;;21.95;100.00
13367;BME280;6752;52.612;13.630;2023-07-29T17:47:15;99959.03;;;22.05;100.00
13367;BME280;6752;52.612;13.630;2023-07-29T17:52:17;99953.09;;;22.02;100.00
13367;BME280;6752;52.612;13.630;2023-07-29T17:57:20;99955.65;;;22.12;100.00
13367;BME280;6752;52.612;13.630;2023-07-29T18:02:22;99958.41;;;22.01;100.00
13367;BME280;6752;52.612;13.630;2023-07-29T18:07:24;99948.78;;;21.96;100.00
13367;BME280;6752;52.612;13.630;2023-07-29T18:12:27;99947.09;;;21.86;100.00
13367;BME280;6752;52.612;13.630;2023-07-29T18:17:29;99957.45;;;21.70;100.00
13367;BME280;6752;52.612;13.630;2023-07-29T18:22:32;99952.89;;;21.44;100.00
13367;BME280;6752;52.612;13.630;2023-07-29T18:27:34;99953.05;;;21.16;100.00
13367;BME280;6752;52.612;13.630;2023-07-29T18:32:36;99953.77;;;21.29;100.00
13367;BME280;6752;52.612;13.630;2023-07-29T18:37:39;99962.59;;;21.10;100.00
13367;BME280;6752;52.612;13.630;2023-07-29T18:42:41;99967.17;;;20.74;100.00
13367;BME280;6752;52.612;13.630;2023-07-29T18:47:43;99981.36;;;20.93;100.00
13367;BME280;6752;52.612;13.630;2023-07-29T18:52:46;99994.64;;;20.93;100.00
13367;BME280;6752;52.612;13.630;2023-07-29T18:57:48;100007.88;;;20.82;100.00
13367;BME280;6752;52.612;13.630;2023-07-29T19:02:50;100013.83;;;20.66;100.00
13367;BME280;6752;52.612;13.630;2023-07-29T19:07:53;100027.59;;;20.27;100.00
13367;BME280;6752;52.612;13.630;2023-07-29T19:12:55;100031.29;;;20.29;100.00
13367;BME280;6752;52.612;13.630;2023-07-29T19:17:58;100040.16;;;20.29;100.00
13367;BME280;6752;52.612;13.630;2023-07-29T19:23:00;100051.67;;;20.27;100.00
13367;BME280;6752;52.612;13.630;2023-07-29T19:28:02;100048.85;;;19.94;100.00
13367;BME280;6752;52.612;13.630;2023-07-29T19:33:05;100053.18;;;20.00;100.00
13367;BME280;6752;52.612;13.630;2023-07-29T19:38:07;100059.20;;;19.95;100.00
13367;BME280;6752;52.612;13.630;2023-07-29T19:43:09;100055.84;;;19.77;100.00
13367;BME280;6752;52.612;13.630;2023-07-29T19:48:12;100063.13;;;19.58;100.00
13367;BME280;6752;52.612;13.630;2023-07-29T19:53:14;100060.84;;;19.51;100.00
13367;BME280;6752;52.612;13.630;2023-07-29T19:58:17;100069.40;;;19.55;100.00
13367;BME280;6752;52.612;13.630;2023-07-29T20:03:19;100075.22;;;19.27;100.00
13367;BME280;6752;52.612;13.630;2023-07-29T20:08:21;100077.34;;;19.23;100.00
13367;BME280;6752;52.612;13.630;2023-07-29T20:13:24;100072.61;;;18.99;100.00
13367;BME280;6752;52.612;13.630;2023-07-29T20:18:26;100075.24;;;18.83;100.00
13367;BME280;6752;52.612;13.630;2023-07-29T20:23:28;100084.34;;;18.84;100.00
13367;BME280;6752;52.612;13.630;2023-07-29T20:28:31;100080.89;;;18.70;100.00
13367;BME280;6752;52.612;13.630;2023-07-29T20:33:33;100077.26;;;18.75;100.00
13367;BME280;6752;52.612;13.630;2023-07-29T20:38:35;100080.91;;;18.65;100.00
13367;BME280;6752;52.612;13.630;2023-07-29T20:43:38;100084.09;;;18.61;100.00
13367;BME280;6752;52.612;13.630;2023-07-29T20:48:40;100084.72;;;18.52;100.00
13367;BME280;6752;52.612;13.630;2023-07-29T20:53:42;100081.75;;;18.41;100.00
13367;BME280;6752;52.612;13.630;2023-07-29T20:58:45;100079.16;;;18.38;100.00
13367;BME280;6752;52.612;13.630;2023-07-29T21:03:47;100076.77;;;18.43;100.00
13367;BME280;6752;52.612;13.630;2023-07-29T21:08:50;100081.02;;;18.31;100.00
13367;BME280;6752;52.612;13.630;2023-07-29T21:13:52;100079.19;;;18.35;100.00
13367;BME280;6752;52.612;13.630;2023-07-29T21:18:54;100084.35;;;18.28;100.00
13367;BME280;6752;52.612;13.630;2023-07-29T21:23:57;100086.19;;;18.23;100.00
13367;BME280;6752;52.612;13.630;2023-07-29T21:28:59;100087.70;;;18.22;100.00
13367;BME280;6752;52.612;13.630;2023-07-29T21:34:01;100090.59;;;18.19;100.00
13367;BME280;6752;52.612;13.630;2023-07-29T21:39:04;100094.30;;;18.21;100.00
13367;BME280;6752;52.612;13.630;2023-07-29T21:44:06;100087.95;;;18.25;100.00
13367;BME280;6752;52.612;13.630;2023-07-29T21:49:12;100101.27;;;18.11;100.00
13367;BME280;6752;52.612;13.630;2023-07-29T21:54:14;100092.98;;;18.13;100.00
13367;BME280;6752;52.612;13.630;2023-07-29T21:59:16;100105.16;;;18.07;100.00
13367;BME280;6752;52.612;13.630;2023-07-29T22:04:19;100105.55;;;18.10;100.00
13367;BME280;6752;52.612;13.630;2023-07-29T22:09:21;100117.08;;;18.22;100.00
13367;BME280;6752;52.612;13.630;2023-07-29T22:14:23;100123.69;;;18.24;100.00
13367;BME280;6752;52.612;13.630;2023-07-29T22:19:26;100114.61;;;18.16;100.00
13367;BME280;6752;52.612;13.630;2023-07-29T22:24:28;100113.45;;;18.27;100.00
13367;BME280;6752;52.612;13.630;2023-07-29T22:29:31;100119.02;;;18.22;100.00
13367;BME280;6752;52.612;13.630;2023-07-29T22:34:37;100126.45;;;18.24;100.00
13367;BME280;6752;52.612;13.630;2023-07-29T22:39:35;100127.16;;;18.15;100.00
13367;BME280;6752;52.612;13.630;2023-07-29T22:44:38;100137.11;;;18.13;100.00
13367;BME280;6752;52.612;13.630;2023-07-29T22:49:41;100124.57;;;18.12;100.00
13367;BME280;6752;52.612;13.630;2023-07-29T22:54:42;100119.05;;;18.12;100.00
13367;BME280;6752;52.612;13.630;2023-07-29T22:59:45;100125.14;;;18.08;100.00
13367;BME280;6752;52.612;13.630;2023-07-29T23:04:47;100134.38;;;18.08;100.00
13367;BME280;6752;52.612;13.630;2023-07-29T23:09:49;100138.27;;;18.05;100.00
13367;BME280;6752;52.612;13.630;2023-07-29T23:14:52;100145.08;;;18.17;100.00
13367;BME280;6752;52.612;13.630;2023-07-29T23:19:54;100150.67;;;18.05;100.00
13367;BME280;6752;52.612;13.630;2023-07-29T23:24:56;100151.55;;;17.90;100.00
13367;BME280;6752;52.612;13.630;2023-07-29T23:29:59;100146.41;;;17.98;100.00
13367;BME280;6752;52.612;13.630;2023-07-29T23:35:01;100147.58;;;17.87;100.00
13367;BME280;6752;52.612;13.630;2023-07-29T23:40:04;100159.84;;;17.87;100.00
13367;BME280;6752;52.612;13.630;2023-07-29T23:45:06;100168.29;;;17.71;100.00
13367;BME280;6752;52.612;13.630;2023-07-29T23:50:08;100164.71;;;17.63;100.00
13367;BME280;6752;52.612;13.630;2023-07-29T23:55:11;100160.16;;;17.78;100.00
